sensor_id;sensor_type;location;lat;lon;timestamp;P1;durP1;ratioP1;P2;durP2;ratioP2
19675;SDS011;39539;52.202;9.876;2023-07-30T00:01:52;1.88;;;1.73;;
19675;SDS011;39539;52.202;9.876;2023-07-30T00:04:17;1.73;;;1.63;;
19675;SDS011;39539;52.202;9.876;2023-07-30T00:06:44;3.78;;;1.75;;
19675;SDS011;39539;52.202;9.876;2023-07-30T00:09:09;1.67;;;1.58;;
19675;SDS011;39539;52.202;9.876;2023-07-30T00:11:34;1.85;;;1.75;;
19675;SDS011;39539;52.202;9.876;2023-07-30T00:14:00;1.90;;;1.80;;
19675;SDS011;39539;52.202;9.876;2023-07-30T00:16:26;1.88;;;1.77;;
19675;SDS011;39539;52.202;9.876;2023-07-30T00:18:51;2.03;;;1.83;;
19675;SDS011;39539;52.202;9.876;2023-07-30T00:21:18;1.85;;;1.75;;
19675;SDS011;39539;52.202;9.876;2023-07-30T00:23:43;1.70;;;1.60;;
19675;SDS011;39539;52.202;9.876;2023-07-30T00:26:08;2.17;;;1.98;;
19675;SDS011;39539;52.202;9.876;2023-07-30T00:28:34;1.90;;;1.80;;
19675;SDS011;39539;52.202;9.876;2023-07-30T00:30:59;2.05;;;1.83;;
19675;SDS011;39539;52.202;9.876;2023-07-30T00:33:24;2.05;;;1.95;;
19675;SDS011;39539;52.202;9.876;2023-07-30T00:35:50;1.92;;;1.83;;
19675;SDS011;39539;52.202;9.876;2023-07-30T00:38:17;2.03;;;1.92;;
19675;SDS011;39539;52.202;9.876;2023-07-30T00:40:43;2.20;;;2.00;;
19675;SDS011;39539;52.202;9.876;2023-07-30T00:43:08;1.85;;;1.55;;
19675;SDS011;39539;52.202;9.876;2023-07-30T00:45:34;2.20;;;2.10;;
19675;SDS011;39539;52.202;9.876;2023-07-30T00:48:00;2.08;;;1.70;;
19675;SDS011;39539;52.202;9.876;2023-07-30T00:50:26;2.17;;;2.08;;
19675;SDS011;39539;52.202;9.876;2023-07-30T00:52:51;2.38;;;1.83;;
19675;SDS011;39539;52.202;9.876;2023-07-30T00:55:16;2.20;;;2.00;;
19675;SDS011;39539;52.202;9.876;2023-07-30T00:57:42;2.47;;;2.00;;
19675;SDS011;39539;52.202;9.876;2023-07-30T01:00:08;2.22;;;2.13;;
19675;SDS011;39539;52.202;9.876;2023-07-30T01:02:37;2.10;;;2.00;;
19675;SDS011;39539;52.202;9.876;2023-07-30T01:05:03;2.42;;;2.25;;
19675;SDS011;39539;52.202;9.876;2023-07-30T01:07:29;2.05;;;1.95;;
19675;SDS011;39539;52.202;9.876;2023-07-30T01:09:55;2.40;;;2.15;;
19675;SDS011;39539;52.202;9.876;2023-07-30T01:12:20;2.38;;;2.28;;
19675;SDS011;39539;52.202;9.876;2023-07-30T01:14:46;2.20;;;2.10;;
19675;SDS011;39539;52.202;9.876;2023-07-30T01:17:12;1.98;;;1.88;;
19675;SDS011;39539;52.202;9.876;2023-07-30T01:19:38;2.22;;;2.13;;
19675;SDS011;39539;52.202;9.876;2023-07-30T01:22:04;2.22;;;2.13;;
19675;SDS011;39539;52.202;9.876;2023-07-30T01:24:29;2.15;;;1.80;;
19675;SDS011;39539;52.202;9.876;2023-07-30T01:26:55;2.10;;;1.90;;
19675;SDS011;39539;52.202;9.876;2023-07-30T01:29:33;2.03;;;1.92;;
19675;SDS011;39539;52.202;9.876;2023-07-30T01:32:07;2.10;;;2.00;;
19675;SDS011;39539;52.202;9.876;2023-07-30T01:34:35;2.25;;;1.98;;
19675;SDS011;39539;52.202;9.876;2023-07-30T01:37:01;1.80;;;1.70;;
19675;SDS011;39539;52.202;9.876;2023-07-30T01:39:27;1.90;;;1.80;;
19675;SDS011;39539;52.202;9.876;2023-07-30T01:41:54;2.00;;;1.90;;
19675;SDS011;39539;52.202;9.876;2023-07-30T01:44:20;2.13;;;2.00;;
19675;SDS011;39539;52.202;9.876;2023-07-30T01:46:45;2.22;;;2.10;;
19675;SDS011;39539;52.202;9.876;2023-07-30T01:49:11;2.65;;;2.08;;
19675;SDS011;39539;52.202;9.876;2023-07-30T01:51:36;2.45;;;2.20;;
19675;SDS011;39539;52.202;9.876;2023-07-30T01:54:01;2.33;;;2.22;;
19675;SDS011;39539;52.202;9.876;2023-07-30T01:56:26;2.47;;;2.28;;
19675;SDS011;39539;52.202;9.876;2023-07-30T01:58:52;2.45;;;1.85;;
19675;SDS011;39539;52.202;9.876;2023-07-30T02:01:17;2.40;;;2.13;;
19675;SDS011;39539;52.202;9.876;2023-07-30T02:03:42;3.35;;;2.60;;
19675;SDS011;39539;52.202;9.876;2023-07-30T02:06:08;2.47;;;2.30;;
19675;SDS011;39539;52.202;9.876;2023-07-30T02:08:33;2.83;;;2.63;;
19675;SDS011;39539;52.202;9.876;2023-07-30T02:10:59;3.10;;;2.60;;
19675;SDS011;39539;52.202;9.876;2023-07-30T02:13:24;6.20;;;2.38;;
19675;SDS011;39539;52.202;9.876;2023-07-30T02:15:50;2.95;;;2.75;;
19675;SDS011;39539;52.202;9.876;2023-07-30T02:18:16;3.08;;;2.80;;
19675;SDS011;39539;52.202;9.876;2023-07-30T02:20:42;3.03;;;2.70;;
19675;SDS011;39539;52.202;9.876;2023-07-30T02:23:07;3.03;;;2.78;;
19675;SDS011;39539;52.202;9.876;2023-07-30T02:25:33;3.47;;;3.17;;
19675;SDS011;39539;52.202;9.876;2023-07-30T02:27:59;3.40;;;3.10;;
19675;SDS011;39539;52.202;9.876;2023-07-30T02:30:25;2.97;;;2.75;;
19675;SDS011;39539;52.202;9.876;2023-07-30T02:32:51;3.45;;;3.17;;
19675;SDS011;39539;52.202;9.876;2023-07-30T02:35:16;3.30;;;3.00;;
19675;SDS011;39539;52.202;9.876;2023-07-30T02:37:41;4.45;;;3.45;;
19675;SDS011;39539;52.202;9.876;2023-07-30T02:40:07;4.72;;;3.50;;
19675;SDS011;39539;52.202;9.876;2023-07-30T02:42:32;3.70;;;3.40;;
19675;SDS011;39539;52.202;9.876;2023-07-30T02:44:58;3.70;;;3.40;;
19675;SDS011;39539;52.202;9.876;2023-07-30T02:47:23;3.90;;;3.47;;
19675;SDS011;39539;52.202;9.876;2023-07-30T02:49:48;3.65;;;3.38;;
19675;SDS011;39539;52.202;9.876;2023-07-30T02:52:14;3.83;;;3.53;;
19675;SDS011;39539;52.202;9.876;2023-07-30T02:54:39;3.75;;;3.40;;
19675;SDS011;39539;52.202;9.876;2023-07-30T02:57:04;3.63;;;3.38;;
19675;SDS011;39539;52.202;9.876;2023-07-30T02:59:30;4.05;;;3.75;;
19675;SDS011;39539;52.202;9.876;2023-07-30T03:01:55;3.72;;;3.42;;
19675;SDS011;39539;52.202;9.876;2023-07-30T03:04:21;3.70;;;3.40;;
19675;SDS011;39539;52.202;9.876;2023-07-30T03:06:46;4.63;;;3.72;;
19675;SDS011;39539;52.202;9.876;2023-07-30T03:09:11;4.03;;;3.60;;
19675;SDS011;39539;52.202;9.876;2023-07-30T03:11:36;3.75;;;3.45;;
19675;SDS011;39539;52.202;9.876;2023-07-30T03:14:02;4.82;;;3.65;;
19675;SDS011;39539;52.202;9.876;2023-07-30T03:16:27;4.30;;;3.90;;
19675;SDS011;39539;52.202;9.876;2023-07-30T03:18:52;4.95;;;3.97;;
19675;SDS011;39539;52.202;9.876;2023-07-30T03:21:18;3.92;;;3.63;;
19675;SDS011;39539;52.202;9.876;2023-07-30T03:23:43;4.50;;;3.53;;
19675;SDS011;39539;52.202;9.876;2023-07-30T03:26:09;3.50;;;3.20;;
19675;SDS011;39539;52.202;9.876;2023-07-30T03:28:35;4.00;;;3.60;;
19675;SDS011;39539;52.202;9.876;2023-07-30T03:31:01;4.57;;;3.63;;
19675;SDS011;39539;52.202;9.876;2023-07-30T03:33:26;4.72;;;3.83;;
19675;SDS011;39539;52.202;9.876;2023-07-30T03:35:51;4.93;;;3.83;;
19675;SDS011;39539;52.202;9.876;2023-07-30T03:38:17;5.57;;;3.65;;
19675;SDS011;39539;52.202;9.876;2023-07-30T03:40:42;4.50;;;4.10;;
19675;SDS011;39539;52.202;9.876;2023-07-30T03:43:08;6.50;;;3.75;;
19675;SDS011;39539;52.202;9.876;2023-07-30T03:45:33;4.43;;;3.67;;
19675;SDS011;39539;52.202;9.876;2023-07-30T03:48:00;4.43;;;3.45;;
19675;SDS011;39539;52.202;9.876;2023-07-30T03:50:25;4.72;;;3.50;;
19675;SDS011;39539;52.202;9.876;2023-07-30T03:52:50;4.68;;;3.90;;
19675;SDS011;39539;52.202;9.876;2023-07-30T03:55:16;6.13;;;3.80;;
19675;SDS011;39539;52.202;9.876;2023-07-30T03:57:41;3.88;;;3.50;;
19675;SDS011;39539;52.202;9.876;2023-07-30T04:00:06;4.15;;;3.75;;
19675;SDS011;39539;52.202;9.876;2023-07-30T04:02:32;4.20;;;3.75;;
19675;SDS011;39539;52.202;9.876;2023-07-30T04:04:59;4.70;;;3.78;;
19675;SDS011;39539;52.202;9.876;2023-07-30T04:07:25;4.13;;;3.83;;
19675;SDS011;39539;52.202;9.876;2023-07-30T04:09:51;4.10;;;3.35;;
19675;SDS011;39539;52.202;9.876;2023-07-30T04:12:17;5.20;;;4.30;;
19675;SDS011;39539;52.202;9.876;2023-07-30T04:14:44;4.90;;;3.80;;
19675;SDS011;39539;52.202;9.876;2023-07-30T04:17:09;6.32;;;4.03;;
19675;SDS011;39539;52.202;9.876;2023-07-30T04:19:34;4.88;;;3.63;;
19675;SDS011;39539;52.202;9.876;2023-07-30T04:22:00;3.90;;;3.53;;
19675;SDS011;39539;52.202;9.876;2023-07-30T04:24:25;5.03;;;3.65;;
19675;SDS011;39539;52.202;9.876;2023-07-30T04:26:51;3.40;;;3.13;;
19675;SDS011;39539;52.202;9.876;2023-07-30T04:29:16;3.83;;;3.50;;
19675;SDS011;39539;52.202;9.876;2023-07-30T04:31:42;4.95;;;3.53;;
19675;SDS011;39539;52.202;9.876;2023-07-30T04:34:07;5.25;;;2.97;;
19675;SDS011;39539;52.202;9.876;2023-07-30T04:36:32;4.85;;;3.50;;
19675;SDS011;39539;52.202;9.876;2023-07-30T04:38:57;5.47;;;3.47;;
19675;SDS011;39539;52.202;9.876;2023-07-30T04:41:23;3.25;;;2.95;;
19675;SDS011;39539;52.202;9.876;2023-07-30T04:43:49;4.47;;;3.42;;
19675;SDS011;39539;52.202;9.876;2023-07-30T04:46:14;5.80;;;3.45;;
19675;SDS011;39539;52.202;9.876;2023-07-30T04:48:40;5.55;;;3.40;;
19675;SDS011;39539;52.202;9.876;2023-07-30T04:51:05;3.13;;;2.83;;
19675;SDS011;39539;52.202;9.876;2023-07-30T04:53:31;5.57;;;3.20;;
19675;SDS011;39539;52.202;9.876;2023-07-30T04:55:56;5.57;;;3.00;;
19675;SDS011;39539;52.202;9.876;2023-07-30T04:58:22;4.10;;;3.28;;
19675;SDS011;39539;52.202;9.876;2023-07-30T05:00:48;5.10;;;3.15;;
19675;SDS011;39539;52.202;9.876;2023-07-30T05:03:13;6.07;;;3.67;;
19675;SDS011;39539;52.202;9.876;2023-07-30T05:05:39;5.35;;;3.97;;
19675;SDS011;39539;52.202;9.876;2023-07-30T05:08:04;4.75;;;4.05;;
19675;SDS011;39539;52.202;9.876;2023-07-30T05:10:29;4.78;;;4.38;;
19675;SDS011;39539;52.202;9.876;2023-07-30T05:12:55;4.82;;;4.38;;
19675;SDS011;39539;52.202;9.876;2023-07-30T05:15:20;4.93;;;4.50;;
19675;SDS011;39539;52.202;9.876;2023-07-30T05:17:45;5.75;;;4.97;;
19675;SDS011;39539;52.202;9.876;2023-07-30T05:20:11;5.43;;;4.43;;
19675;SDS011;39539;52.202;9.876;2023-07-30T05:22:36;5.72;;;5.22;;
19675;SDS011;39539;52.202;9.876;2023-07-30T05:25:01;7.57;;;6.70;;
19675;SDS011;39539;52.202;9.876;2023-07-30T05:27:27;6.72;;;6.13;;
19675;SDS011;39539;52.202;9.876;2023-07-30T05:29:54;7.63;;;7.05;;
19675;SDS011;39539;52.202;9.876;2023-07-30T05:32:19;9.23;;;8.27;;
19675;SDS011;39539;52.202;9.876;2023-07-30T05:34:45;8.75;;;7.85;;
19675;SDS011;39539;52.202;9.876;2023-07-30T05:37:10;9.23;;;8.43;;
19675;SDS011;39539;52.202;9.876;2023-07-30T05:39:35;9.10;;;8.38;;
19675;SDS011;39539;52.202;9.876;2023-07-30T05:42:01;8.48;;;7.68;;
19675;SDS011;39539;52.202;9.876;2023-07-30T05:44:26;9.65;;;8.88;;
19675;SDS011;39539;52.202;9.876;2023-07-30T05:46:51;8.60;;;7.90;;
19675;SDS011;39539;52.202;9.876;2023-07-30T05:49:17;8.02;;;7.43;;
19675;SDS011;39539;52.202;9.876;2023-07-30T05:51:42;7.88;;;7.28;;
19675;SDS011;39539;52.202;9.876;2023-07-30T05:54:07;7.90;;;7.13;;
19675;SDS011;39539;52.202;9.876;2023-07-30T05:56:32;7.57;;;6.97;;
19675;SDS011;39539;52.202;9.876;2023-07-30T05:58:58;7.07;;;6.47;;
19675;SDS011;39539;52.202;9.876;2023-07-30T06:01:23;6.38;;;5.78;;
19675;SDS011;39539;52.202;9.876;2023-07-30T06:03:48;6.35;;;5.82;;
19675;SDS011;39539;52.202;9.876;2023-07-30T06:06:14;5.90;;;5.32;;
19675;SDS011;39539;52.202;9.876;2023-07-30T06:08:39;6.75;;;5.07;;
19675;SDS011;39539;52.202;9.876;2023-07-30T06:11:04;5.30;;;4.80;;
19675;SDS011;39539;52.202;9.876;2023-07-30T06:13:30;4.93;;;4.45;;
19675;SDS011;39539;52.202;9.876;2023-07-30T06:15:55;5.00;;;4.50;;
19675;SDS011;39539;52.202;9.876;2023-07-30T06:18:21;4.65;;;4.25;;
19675;SDS011;39539;52.202;9.876;2023-07-30T06:20:46;4.00;;;3.60;;
19675;SDS011;39539;52.202;9.876;2023-07-30T06:23:12;5.75;;;3.97;;
19675;SDS011;39539;52.202;9.876;2023-07-30T06:25:37;4.25;;;3.53;;
19675;SDS011;39539;52.202;9.876;2023-07-30T06:28:02;5.18;;;3.70;;
19675;SDS011;39539;52.202;9.876;2023-07-30T06:30:29;3.95;;;2.95;;
19675;SDS011;39539;52.202;9.876;2023-07-30T06:32:56;4.43;;;2.88;;
19675;SDS011;39539;52.202;9.876;2023-07-30T06:35:21;4.22;;;2.70;;
19675;SDS011;39539;52.202;9.876;2023-07-30T06:37:46;4.20;;;2.92;;
19675;SDS011;39539;52.202;9.876;2023-07-30T06:40:11;5.10;;;2.25;;
19675;SDS011;39539;52.202;9.876;2023-07-30T06:42:37;3.17;;;2.03;;
19675;SDS011;39539;52.202;9.876;2023-07-30T06:45:02;2.78;;;1.70;;
19675;SDS011;39539;52.202;9.876;2023-07-30T06:47:28;4.22;;;1.63;;
19675;SDS011;39539;52.202;9.876;2023-07-30T06:49:53;2.53;;;2.10;;
19675;SDS011;39539;52.202;9.876;2023-07-30T06:52:19;2.65;;;1.52;;
19675;SDS011;39539;52.202;9.876;2023-07-30T06:54:45;4.30;;;1.75;;
19675;SDS011;39539;52.202;9.876;2023-07-30T06:57:10;3.50;;;1.50;;
19675;SDS011;39539;52.202;9.876;2023-07-30T06:59:35;3.13;;;1.63;;
19675;SDS011;39539;52.202;9.876;2023-07-30T07:02:01;2.88;;;1.73;;
19675;SDS011;39539;52.202;9.876;2023-07-30T07:04:26;2.47;;;1.30;;
19675;SDS011;39539;52.202;9.876;2023-07-30T07:06:51;2.75;;;1.58;;
19675;SDS011;39539;52.202;9.876;2023-07-30T07:09:18;3.03;;;1.50;;
19675;SDS011;39539;52.202;9.876;2023-07-30T07:11:43;3.20;;;1.42;;
19675;SDS011;39539;52.202;9.876;2023-07-30T07:14:09;3.40;;;1.15;;
19675;SDS011;39539;52.202;9.876;2023-07-30T07:16:34;2.97;;;1.30;;
19675;SDS011;39539;52.202;9.876;2023-07-30T07:18:59;2.38;;;1.38;;
19675;SDS011;39539;52.202;9.876;2023-07-30T07:21:24;2.65;;;1.25;;
19675;SDS011;39539;52.202;9.876;2023-07-30T07:23:51;3.60;;;1.55;;
19675;SDS011;39539;52.202;9.876;2023-07-30T07:26:16;2.65;;;1.38;;
19675;SDS011;39539;52.202;9.876;2023-07-30T07:28:42;2.10;;;1.38;;
19675;SDS011;39539;52.202;9.876;2023-07-30T07:31:07;2.45;;;1.20;;
19675;SDS011;39539;52.202;9.876;2023-07-30T07:33:33;2.50;;;1.48;;
19675;SDS011;39539;52.202;9.876;2023-07-30T07:36:04;2.00;;;1.42;;
19675;SDS011;39539;52.202;9.876;2023-07-30T07:38:32;2.70;;;1.40;;
19675;SDS011;39539;52.202;9.876;2023-07-30T07:40:59;1.90;;;1.20;;
19675;SDS011;39539;52.202;9.876;2023-07-30T07:43:27;2.22;;;1.38;;
19675;SDS011;39539;52.202;9.876;2023-07-30T07:45:52;1.95;;;1.40;;
19675;SDS011;39539;52.202;9.876;2023-07-30T07:48:18;1.73;;;1.20;;
19675;SDS011;39539;52.202;9.876;2023-07-30T07:50:44;1.98;;;1.17;;
19675;SDS011;39539;52.202;9.876;2023-07-30T07:53:10;2.53;;;1.55;;
19675;SDS011;39539;52.202;9.876;2023-07-30T07:55:35;1.77;;;1.10;;
19675;SDS011;39539;52.202;9.876;2023-07-30T07:58:01;2.22;;;1.23;;
19675;SDS011;39539;52.202;9.876;2023-07-30T08:00:26;3.38;;;1.10;;
19675;SDS011;39539;52.202;9.876;2023-07-30T08:02:51;1.35;;;1.20;;
19675;SDS011;39539;52.202;9.876;2023-07-30T08:05:18;1.88;;;1.35;;
19675;SDS011;39539;52.202;9.876;2023-07-30T08:07:46;2.00;;;1.52;;
19675;SDS011;39539;52.202;9.876;2023-07-30T08:10:12;2.05;;;1.50;;
19675;SDS011;39539;52.202;9.876;2023-07-30T08:12:37;1.90;;;1.48;;
19675;SDS011;39539;52.202;9.876;2023-07-30T08:15:03;1.88;;;1.40;;
19675;SDS011;39539;52.202;9.876;2023-07-30T08:17:28;2.65;;;1.58;;
19675;SDS011;39539;52.202;9.876;2023-07-30T08:19:54;2.15;;;1.42;;
19675;SDS011;39539;52.202;9.876;2023-07-30T08:22:19;1.55;;;1.30;;
19675;SDS011;39539;52.202;9.876;2023-07-30T08:24:45;2.50;;;1.60;;
19675;SDS011;39539;52.202;9.876;2023-07-30T08:27:10;3.35;;;1.50;;
19675;SDS011;39539;52.202;9.876;2023-07-30T08:29:35;2.17;;;1.52;;
19675;SDS011;39539;52.202;9.876;2023-07-30T08:32:01;2.60;;;1.30;;
19675;SDS011;39539;52.202;9.876;2023-07-30T08:34:26;2.35;;;1.38;;
19675;SDS011;39539;52.202;9.876;2023-07-30T08:36:51;2.13;;;1.13;;
19675;SDS011;39539;52.202;9.876;2023-07-30T08:39:17;3.88;;;1.42;;
19675;SDS011;39539;52.202;9.876;2023-07-30T08:41:43;3.45;;;1.23;;
19675;SDS011;39539;52.202;9.876;2023-07-30T08:44:09;2.42;;;1.30;;
19675;SDS011;39539;52.202;9.876;2023-07-30T08:46:36;2.60;;;1.15;;
19675;SDS011;39539;52.202;9.876;2023-07-30T08:49:01;2.05;;;1.20;;
19675;SDS011;39539;52.202;9.876;2023-07-30T08:51:27;2.30;;;1.23;;
19675;SDS011;39539;52.202;9.876;2023-07-30T08:53:53;1.98;;;1.30;;
19675;SDS011;39539;52.202;9.876;2023-07-30T08:56:23;2.72;;;1.38;;
19675;SDS011;39539;52.202;9.876;2023-07-30T08:58:49;2.63;;;1.35;;
19675;SDS011;39539;52.202;9.876;2023-07-30T09:01:16;3.92;;;1.52;;
19675;SDS011;39539;52.202;9.876;2023-07-30T09:03:43;2.97;;;1.23;;
19675;SDS011;39539;52.202;9.876;2023-07-30T09:06:09;2.05;;;1.40;;
